Time;durP1;ratioP1;P1;durP2;ratioP2;P2;SDS_P1;SDS_P2;PMS_P1;PMS_P2;Temp;Humidity;BMP_temperature;BMP_pressure;BME280_temperature;BME280_humidity;BME280_pressure;Samples;Min_cycle;Max_cycle;Signal;HPM_P1;HPM_P2
2022/08/25 00:01:42;;;;;;;3.70;3.50;;;27.10;48.50;;;;;;6063038;23;20421;-86
2022/08/25 00:04:12;;;;;;;3.03;2.70;;;27.00;48.50;;;;;;6089614;23;20408;-86
2022/08/25 00:06:41;;;;;;;2.93;2.73;;;26.90;48.80;;;;;;6089982;23;20555;-87
2022/08/25 00:09:10;;;;;;;3.80;3.40;;;27.00;48.50;;;;;;6089489;23;20409;-86
2022/08/25 00:11:42;;;;;;;3.17;2.90;;;26.90;48.50;;;;;;6064538;23;20419;-85
2022/08/25 00:14:13;;;;;;;3.37;3.17;;;26.90;49.50;;;;;;6064394;23;20473;-88
2022/08/25 00:16:41;;;;;;;3.53;3.23;;;26.90;49.10;;;;;;6064991;23;20451;-83
2022/08/25 00:19:13;;;;;;;3.90;3.50;;;27.00;48.80;;;;;;6068242;23;20413;-85
2022/08/25 00:21:41;;;;;;;5.20;3.10;;;26.90;49.00;;;;;;6067370;23;20448;-85
2022/08/25 00:24:13;;;;;;;3.17;2.87;;;26.80;49.70;;;;;;6068830;23;20416;-85
2022/08/25 00:26:42;;;;;;;3.80;3.40;;;26.80;49.80;;;;;;6090037;23;20448;-84
2022/08/25 00:29:10;;;;;;;2.90;2.70;;;26.80;50.00;;;;;;6093910;23;20417;-84
2022/08/25 00:31:37;;;;;;;4.03;3.70;;;27.00;50.60;;;;;;6063807;23;20415;-85
2022/08/25 00:34:11;;;;;;;3.73;3.43;;;27.10;50.70;;;;;;6090079;23;20424;-84
2022/08/25 00:36:38;;;;;;;4.27;3.40;;;27.00;49.90;;;;;;6087816;23;20484;-87
2022/08/25 00:39:07;;;;;;;3.10;2.80;;;27.00;50.40;;;;;;6088107;23;20440;-85
2022/08/25 00:41:34;;;;;;;3.63;3.33;;;26.80;50.40;;;;;;6063813;23;20424;-85
2022/08/25 00:44:05;;;;;;;3.90;3.60;;;26.70;50.30;;;;;;6041022;23;20426;-86
2022/08/25 00:46:39;;;;;;;2.90;2.70;;;26.60;50.40;;;;;;6088429;23;20452;-84
2022/08/25 00:49:22;;;;;;;3.60;3.37;;;26.60;50.90;;;;;;6091010;23;20405;-85
2022/08/25 00:51:56;;;;;;;4.20;3.20;;;26.80;50.20;;;;;;6089406;23;20401;-85
2022/08/25 00:54:47;;;;;;;3.40;3.10;;;26.70;50.20;;;;;;6065114;23;20483;-85
2022/08/25 00:57:17;;;;;;;3.70;3.30;;;26.70;50.70;;;;;;6074531;23;20441;-87
2022/08/25 00:59:44;;;;;;;3.77;3.47;;;26.70;50.40;;;;;;6065349;23;21036;-87
2022/08/25 01:02:14;;;;;;;3.70;3.50;;;26.50;50.00;;;;;;6091623;23;20416;-86
2022/08/25 01:04:43;;;;;;;3.20;2.90;;;26.20;50.70;;;;;;6066031;23;20424;-86
2022/08/25 01:07:17;;;;;;;3.17;2.87;;;26.20;51.70;;;;;;6089538;23;20523;-87
2022/08/25 01:09:46;;;;;;;3.60;3.30;;;26.20;52.40;;;;;;6092887;23;20467;-85
2022/08/25 01:12:13;;;;;;;3.60;3.40;;;26.30;52.10;;;;;;6090991;23;20397;-86
2022/08/25 01:14:40;;;;;;;3.07;2.83;;;26.40;52.20;;;;;;6066974;23;20419;-86
2022/08/25 01:17:06;;;;;;;3.60;3.30;;;26.40;51.80;;;;;;6065159;23;20781;-85
2022/08/25 01:19:33;;;;;;;3.47;3.23;;;26.30;51.90;;;;;;6093458;23;20401;-86
2022/08/25 01:22:00;;;;;;;5.57;3.17;;;26.30;52.20;;;;;;6094214;23;21312;-86
2022/08/25 01:24:49;;;;;;;4.17;3.87;;;26.30;52.10;;;;;;6069901;23;20404;-86
2022/08/25 01:27:16;;;;;;;6.30;3.37;;;26.20;52.10;;;;;;6076904;23;20448;-87
2022/08/25 01:29:43;;;;;;;3.60;3.30;;;26.30;52.00;;;;;;6084500;23;20683;-85
2022/08/25 01:32:12;;;;;;;3.47;3.00;;;26.30;51.70;;;;;;6109772;23;20421;-85
2022/08/25 01:34:42;;;;;;;2.97;2.80;;;26.40;51.30;;;;;;6110071;23;20393;-85
2022/08/25 01:37:12;;;;;;;3.30;2.80;;;26.40;51.20;;;;;;6079723;23;20528;-86
2022/08/25 01:39:40;;;;;;;3.20;2.90;;;26.40;51.40;;;;;;6106606;23;20405;-85
2022/08/25 01:42:28;;;;;;;3.40;3.10;;;26.40;51.40;;;;;;6105513;23;20520;-83
2022/08/25 01:44:56;;;;;;;3.60;2.93;;;26.40;50.80;;;;;;6104723;23;20418;-84
2022/08/25 01:47:23;;;;;;;6.00;3.30;;;26.40;50.80;;;;;;6077677;23;20480;-84
2022/08/25 01:49:50;;;;;;;3.57;3.27;;;26.40;50.90;;;;;;6079829;23;20469;-85
2022/08/25 01:52:31;;;;;;;4.80;3.00;;;26.20;51.20;;;;;;6079489;23;20413;-83
2022/08/25 01:54:58;;;;;;;3.37;3.07;;;26.30;51.40;;;;;;6106099;23;20416;-82
2022/08/25 01:57:29;;;;;;;3.30;3.10;;;26.30;51.30;;;;;;6079301;23;20448;-85
2022/08/25 01:59:56;;;;;;;2.97;2.77;;;26.20;50.80;;;;;;6100110;23;20511;-83
2022/08/25 02:02:23;;;;;;;3.30;2.80;;;26.00;51.30;;;;;;6098956;23;20487;-85
2022/08/25 02:04:52;;;;;;;6.00;3.60;;;26.00;52.10;;;;;;6077438;23;20421;-84
2022/08/25 02:07:19;;;;;;;3.00;2.80;;;26.00;52.30;;;;;;6069065;23;20463;-85
2022/08/25 02:09:47;;;;;;;3.50;3.20;;;26.00;52.10;;;;;;6068375;23;20416;-85
2022/08/25 02:12:16;;;;;;;3.00;2.80;;;26.00;52.00;;;;;;6071130;23;20491;-84
2022/08/25 02:14:52;;;;;;;3.13;2.93;;;26.10;51.40;;;;;;6079460;23;20529;-86
2022/08/25 02:17:58;;;;;;;3.23;3.03;;;26.00;51.30;;;;;;6092481;23;20462;-85
2022/08/25 02:20:29;;;;;;;2.87;2.67;;;25.90;51.90;;;;;;6093549;23;20787;-85
2022/08/25 02:23:03;;;;;;;2.70;2.50;;;25.90;51.90;;;;;;6093677;23;20431;-84
2022/08/25 02:25:44;;;;;;;4.03;3.00;;;26.00;52.10;;;;;;6068935;23;20433;-85
2022/08/25 02:28:14;;;;;;;3.03;2.70;;;26.00;51.50;;;;;;6067605;23;21018;-84
2022/08/25 02:30:51;;;;;;;3.07;2.87;;;26.00;50.90;;;;;;6093992;23;20413;-85
2022/08/25 02:33:21;;;;;;;4.40;3.13;;;26.00;51.10;;;;;;6069321;23;20424;-85
2022/08/25 02:35:55;;;;;;;5.40;2.90;;;26.00;50.80;;;;;;6093513;23;20441;-85
2022/08/25 02:38:31;;;;;;;2.80;2.60;;;26.00;51.10;;;;;;6069356;23;20413;-84
2022/08/25 02:41:02;;;;;;;2.83;2.63;;;25.90;51.50;;;;;;6070455;23;20412;-85
2022/08/25 02:43:33;;;;;;;6.17;3.13;;;25.80;52.20;;;;;;6082516;23;20468;-87
2022/08/25 02:46:30;;;;;;;3.00;2.80;;;25.70;52.20;;;;;;6090813;23;20431;-85
2022/08/25 02:49:00;;;;;;;2.80;2.60;;;25.80;52.10;;;;;;6089458;23;20421;-84
2022/08/25 02:51:46;;;;;;;5.53;3.00;;;25.70;51.70;;;;;;6114425;23;20423;-86
2022/08/25 02:54:32;;;;;;;5.60;2.83;;;25.70;52.30;;;;;;6092761;23;20404;-86
2022/08/25 02:57:10;;;;;;;3.53;3.10;;;25.50;53.10;;;;;;6091632;23;20471;-85
2022/08/25 02:59:38;;;;;;;4.60;3.10;;;25.60;53.80;;;;;;6112249;23;20421;-86
2022/08/25 03:02:11;;;;;;;3.50;3.20;;;25.60;54.30;;;;;;6088430;23;20481;-84
2022/08/25 03:04:47;;;;;;;3.30;3.10;;;25.60;54.20;;;;;;6076208;23;20451;-85
2022/08/25 03:07:31;;;;;;;3.40;3.10;;;25.40;54.50;;;;;;6071401;23;20515;-84
2022/08/25 03:10:15;;;;;;;3.43;3.13;;;25.50;54.50;;;;;;6070483;23;20412;-85
2022/08/25 03:12:57;;;;;;;3.70;3.40;;;25.40;54.40;;;;;;6093866;23;20416;-86
2022/08/25 03:15:41;;;;;;;7.53;3.20;;;25.30;54.10;;;;;;6066117;23;20444;-84
2022/08/25 03:18:12;;;;;;;3.07;2.87;;;25.10;54.50;;;;;;6071769;23;20448;-84
2022/08/25 03:21:07;;;;;;;3.17;2.87;;;25.20;54.50;;;;;;6072448;23;20416;-85
2022/08/25 03:23:54;;;;;;;3.27;2.97;;;25.10;54.60;;;;;;6057044;23;20422;-85
2022/08/25 03:29:28;;;;;;;3.37;3.07;;;24.80;54.90;;;;;;6104713;23;20440;-84
2022/08/25 03:32:22;;;;;;;3.60;3.17;;;24.90;55.30;;;;;;6096950;23;20392;-83
2022/08/25 03:34:51;;;;;;;3.47;3.10;;;24.80;55.40;;;;;;6098634;23;20913;-85
2022/08/25 03:37:23;;;;;;;3.33;3.10;;;24.80;55.70;;;;;;6106819;23;20455;-84
2022/08/25 03:40:05;;;;;;;3.27;3.00;;;24.80;55.50;;;;;;6092877;23;20592;-85
2022/08/25 03:42:46;;;;;;;4.00;3.03;;;24.70;55.80;;;;;;6094703;23;20471;-85
2022/08/25 03:45:29;;;;;;;4.07;3.67;;;24.60;56.20;;;;;;6115529;23;20421;-84
2022/08/25 03:47:58;;;;;;;3.70;3.40;;;24.60;56.70;;;;;;6092067;23;20439;-86
2022/08/25 03:50:26;;;;;;;8.00;3.53;;;24.50;56.70;;;;;;6092947;23;20416;-85
2022/08/25 03:53:01;;;;;;;3.30;3.10;;;24.50;56.80;;;;;;6090437;23;20420;-86
2022/08/25 03:55:31;;;;;;;3.87;3.17;;;24.60;56.80;;;;;;6078200;23;20422;-83
2022/08/25 03:58:03;;;;;;;3.70;3.33;;;24.60;56.60;;;;;;6075748;23;20413;-83
2022/08/25 04:00:34;;;;;;;5.10;3.37;;;24.40;56.80;;;;;;6074089;23;20444;-84
2022/08/25 04:03:04;;;;;;;3.50;3.20;;;24.50;57.70;;;;;;6073569;23;20427;-84
2022/08/25 04:05:39;;;;;;;3.60;3.30;;;24.40;58.00;;;;;;6078388;23;20428;-84
2022/08/25 04:08:12;;;;;;;5.47;3.70;;;24.30;58.30;;;;;;6075407;23;20447;-84
2022/08/25 04:10:49;;;;;;;3.90;3.60;;;24.20;58.60;;;;;;6072511;23;20408;-86
2022/08/25 04:13:26;;;;;;;4.90;4.40;;;24.10;58.70;;;;;;6072841;23;20408;-84
2022/08/25 04:16:13;;;;;;;5.27;3.93;;;24.30;58.50;;;;;;6073250;23;20474;-85
2022/08/25 04:18:55;;;;;;;5.07;3.53;;;24.30;58.40;;;;;;6073436;23;20488;-86
2022/08/25 04:21:32;;;;;;;7.97;3.90;;;24.20;58.20;;;;;;6097544;23;20467;-84
2022/08/25 04:24:02;;;;;;;3.57;3.27;;;24.30;58.70;;;;;;6071473;23;20814;-86
2022/08/25 04:26:56;;;;;;;3.33;3.03;;;24.30;58.60;;;;;;6071408;23;20472;-86
2022/08/25 04:29:31;;;;;;;4.90;3.33;;;24.30;58.80;;;;;;6074197;23;20405;-84
2022/08/25 04:32:15;;;;;;;3.87;3.50;;;24.30;59.20;;;;;;6075873;23;20453;-85
2022/08/25 04:34:44;;;;;;;3.83;3.43;;;24.30;59.30;;;;;;6075245;23;20875;-84
2022/08/25 04:37:22;;;;;;;8.30;4.60;;;24.30;59.40;;;;;;6073102;23;20441;-84
2022/08/25 04:39:53;;;;;;;6.77;4.07;;;24.30;59.40;;;;;;6110579;23;20432;-86
2022/08/25 04:42:43;;;;;;;11.13;4.10;;;24.40;59.40;;;;;;6114457;23;20413;-86
2022/08/25 04:45:32;;;;;;;4.07;3.60;;;24.20;59.10;;;;;;6078087;23;20389;-86
2022/08/25 04:48:06;;;;;;;5.33;3.50;;;24.20;59.70;;;;;;6102029;23;20444;-86
2022/08/25 04:50:49;;;;;;;5.77;4.10;;;24.30;59.40;;;;;;6073878;23;20377;-86
2022/08/25 04:53:24;;;;;;;5.87;4.10;;;24.30;59.50;;;;;;6100257;23;20435;-86
2022/08/25 04:56:17;;;;;;;5.50;4.23;;;24.20;59.80;;;;;;6072221;23;20439;-85
2022/08/25 04:58:50;;;;;;;5.90;3.90;;;24.00;60.30;;;;;;6094592;23;20413;-84
2022/08/25 05:01:41;;;;;;;7.67;4.17;;;23.90;61.40;;;;;;6071183;23;20732;-85
2022/08/25 05:04:21;;;;;;;6.70;5.63;;;23.90;61.50;;;;;;6067626;23;20448;-83
2022/08/25 05:06:57;;;;;;;6.80;5.00;;;24.10;61.50;;;;;;6067831;23;20499;-86
2022/08/25 05:09:38;;;;;;;4.80;4.40;;;24.10;61.70;;;;;;6068446;23;20411;-86
2022/08/25 05:12:19;;;;;;;6.03;4.40;;;24.10;61.40;;;;;;6070313;23;20400;-85
2022/08/25 05:14:54;;;;;;;5.70;4.90;;;24.00;61.30;;;;;;6067160;23;20405;-84
2022/08/25 05:17:29;;;;;;;4.80;4.30;;;23.90;62.20;;;;;;6090129;23;21473;-84
2022/08/25 05:20:23;;;;;;;6.13;4.20;;;23.90;62.60;;;;;;6092784;23;20868;-84
2022/08/25 05:23:08;;;;;;;5.87;4.00;;;24.00;63.30;;;;;;6093599;23;20421;-86
2022/08/25 05:25:36;;;;;;;4.93;3.87;;;23.90;63.20;;;;;;6069576;23;20467;-84
2022/08/25 05:28:10;;;;;;;6.23;4.70;;;23.90;63.60;;;;;;6070785;23;20532;-84
2022/08/25 05:30:49;;;;;;;4.97;4.17;;;23.90;64.20;;;;;;6072224;23;20417;-82
2022/08/25 05:33:30;;;;;;;6.30;5.10;;;23.90;64.30;;;;;;6071748;23;20444;-85
2022/08/25 05:36:04;;;;;;;5.70;5.10;;;23.90;64.20;;;;;;6068700;23;20469;-87
2022/08/25 05:38:45;;;;;;;11.03;5.30;;;23.90;64.00;;;;;;6067850;23;20511;-86
2022/08/25 05:41:33;;;;;;;13.70;6.10;;;24.00;64.70;;;;;;6094054;23;20405;-84
2022/08/25 05:44:26;;;;;;;6.40;5.67;;;23.90;64.60;;;;;;6072843;23;20428;-85
2022/08/25 05:47:10;;;;;;;5.00;3.90;;;24.10;64.20;;;;;;6071764;23;20471;-87
2022/08/25 05:49:55;;;;;;;3.93;3.63;;;24.10;64.30;;;;;;6072745;23;20419;-86
2022/08/25 05:52:45;;;;;;;5.07;4.67;;;24.00;64.70;;;;;;6083779;23;20417;-88
2022/08/25 05:55:16;;;;;;;5.47;4.33;;;23.90;65.40;;;;;;6095837;23;20484;-85
2022/08/25 05:57:49;;;;;;;4.67;4.27;;;23.80;66.10;;;;;;6065521;23;20467;-85
2022/08/25 06:00:23;;;;;;;4.50;4.00;;;23.90;66.10;;;;;;6066848;23;20409;-88
2022/08/25 06:02:58;;;;;;;7.40;4.50;;;23.90;66.10;;;;;;6090475;23;20415;-87
2022/08/25 06:05:28;;;;;;;4.57;4.07;;;23.90;66.90;;;;;;6066075;23;20451;-85
2022/08/25 06:08:04;;;;;;;4.83;4.10;;;24.20;67.60;;;;;;6068170;23;20476;-85
2022/08/25 06:10:35;;;;;;;4.70;4.10;;;26.00;64.10;;;;;;6068756;23;20472;-82
2022/08/25 06:13:11;;;;;;;4.93;4.20;;;28.90;56.50;;;;;;6104719;23;20392;-87
2022/08/25 06:15:46;;;;;;;4.57;4.17;;;31.00;51.50;;;;;;6102764;23;20439;-87
2022/08/25 06:18:27;;;;;;;5.10;3.97;;;32.40;48.00;;;;;;6075156;23;20417;-86
2022/08/25 06:21:21;;;;;;;4.00;3.60;;;33.80;45.70;;;;;;6069532;23;20980;-86
2022/08/25 06:24:06;;;;;;;4.63;4.23;;;34.80;43.30;;;;;;6068337;23;20397;-88
2022/08/25 06:26:51;;;;;;;4.90;4.40;;;35.50;42.60;;;;;;6068344;23;20449;-84
2022/08/25 06:29:30;;;;;;;4.60;3.77;;;36.70;40.30;;;;;;6078446;23;20408;-86
2022/08/25 06:32:29;;;;;;;4.03;3.63;;;37.40;39.20;;;;;;6081243;23;20411;-84
2022/08/25 06:35:19;;;;;;;3.90;3.60;;;37.80;38.30;;;;;;6092290;23;20444;-86
2022/08/25 06:37:52;;;;;;;4.80;4.40;;;38.70;36.60;;;;;;6092514;23;20496;-86
2022/08/25 06:40:45;;;;;;;5.47;3.83;;;38.00;36.20;;;;;;6070640;23;20389;-84
2022/08/25 06:43:19;;;;;;;5.80;4.20;;;37.00;37.30;;;;;;6069788;23;20404;-87
2022/08/25 06:46:36;;;;;;;4.87;4.47;;;37.20;37.20;;;;;;6069220;23;20460;-84
2022/08/25 06:49:05;;;;;;;6.00;4.50;;;37.10;37.40;;;;;;6032006;23;20517;-86
2022/08/25 06:51:38;;;;;;;4.27;3.87;;;37.00;37.20;;;;;;6060695;23;20440;-85
2022/08/25 06:54:45;;;;;;;4.77;4.37;;;36.70;37.50;;;;;;6073223;23;20459;-85
2022/08/25 06:57:26;;;;;;;5.40;4.40;;;36.80;37.50;;;;;;6093691;23;21026;-84
2022/08/25 07:00:09;;;;;;;6.47;4.37;;;37.00;37.30;;;;;;6070050;23;20443;-85
2022/08/25 07:02:46;;;;;;;6.00;3.63;;;37.00;37.30;;;;;;6073457;23;20412;-86
2022/08/25 07:05:36;;;;;;;4.17;3.80;;;36.40;37.50;;;;;;6071289;23;20436;-86
2022/08/25 07:08:14;;;;;;;3.97;3.67;;;35.80;38.40;;;;;;6075291;23;20477;-87
2022/08/25 07:11:24;;;;;;;;;;;;;;;;;;;;;
2022/08/25 07:14:34;;;;;;;9.33;3.90;;;35.70;38.80;;;;;;6091378;23;20394;-85
2022/08/25 07:17:51;;;;;;;5.00;3.53;;;36.20;38.50;;;;;;6097116;23;20443;-85
2022/08/25 07:20:46;;;;;;;4.77;4.20;;;36.80;37.20;;;;;;6076104;23;20377;-86
2022/08/25 07:23:34;;;;;;;4.40;4.00;;;37.20;36.60;;;;;;6096979;23;20409;-85
2022/08/25 07:26:46;;;;;;;4.10;3.73;;;37.30;36.60;;;;;;6045163;23;20420;-86
2022/08/25 07:29:37;;;;;;;5.00;4.50;;;36.00;38.10;;;;;;5989197;23;20487;-84
2022/08/25 07:32:26;;;;;;;3.57;3.27;;;37.00;37.70;;;;;;6006221;23;20375;-85
2022/08/25 07:38:18;;;;;;;5.00;4.60;;;37.70;36.60;;;;;;5898182;24;20530;-87
2022/08/25 07:41:27;;;;;;;5.10;4.70;;;38.50;35.00;;;;;;5902048;24;20415;-85
2022/08/25 07:44:35;;;;;;;6.20;4.80;;;38.20;35.30;;;;;;5984668;23;20471;-86
2022/08/25 07:47:23;;;;;;;6.07;3.93;;;37.20;36.40;;;;;;5985103;23;20451;-87
2022/08/25 07:50:00;;;;;;;4.47;4.07;;;38.10;36.30;;;;;;5986968;23;20421;-85
2022/08/25 07:52:31;;;;;;;4.97;3.80;;;38.20;35.50;;;;;;5985284;23;20426;-85
2022/08/25 07:55:12;;;;;;;4.50;4.17;;;38.90;34.40;;;;;;6006673;23;20407;-86
2022/08/25 07:58:03;;;;;;;4.63;4.23;;;39.40;33.70;;;;;;6007616;23;20419;-87
2022/08/25 08:00:53;;;;;;;4.53;4.23;;;40.20;33.10;;;;;;6064952;23;20503;-86
2022/08/25 08:03:32;;;;;;;4.80;4.50;;;40.10;32.30;;;;;;6073715;23;20495;-86
2022/08/25 08:06:28;;;;;;;4.33;3.93;;;39.30;32.90;;;;;;6069981;23;20492;-89
2022/08/25 08:08:59;;;;;;;4.70;3.90;;;38.80;33.80;;;;;;6096814;23;20468;-86
2022/08/25 08:11:43;;;;;;;8.53;4.67;;;38.10;34.70;;;;;;6071864;23;20414;-84
2022/08/25 08:14:30;;;;;;;4.70;4.30;;;38.10;34.70;;;;;;6074701;23;20464;-85
2022/08/25 08:17:09;;;;;;;4.93;3.97;;;37.50;35.50;;;;;;6097520;23;21309;-86
2022/08/25 08:19:58;;;;;;;5.10;4.60;;;37.90;35.20;;;;;;6072953;23;20427;-83
2022/08/25 08:23:00;;;;;;;4.40;4.10;;;37.90;35.10;;;;;;6080756;23;20420;-86
2022/08/25 08:26:33;;;;;;;4.40;4.00;;;37.10;36.00;;;;;;6073473;23;21215;-85
2022/08/25 08:30:01;;;;;;;;;;;;;;;;;;;;;
2022/08/25 08:33:11;;;;;;;4.13;3.83;;;39.00;34.00;;;;;;6094758;23;20405;-87
2022/08/25 08:36:27;;;;;;;4.77;4.30;;;39.00;33.70;;;;;;6035320;23;20429;-85
2022/08/25 08:39:17;;;;;;;5.00;4.50;;;38.80;34.10;;;;;;6065138;23;20432;-87
2022/08/25 08:42:53;;;;;;;4.40;4.00;;;38.70;34.10;;;;;;6045602;23;20768;-86
2022/08/25 08:50:01;;;;;;;6.40;4.07;;;37.40;35.70;;;;;;5979889;24;20456;-85
2022/08/25 08:57:18;;;;;;;4.00;3.60;;;38.90;33.90;;;;;;6092656;23;20803;-86
2022/08/25 09:00:57;;;;;;;;;;;;;;;;;;;;;
2022/08/25 09:08:28;;;;;;;5.17;4.67;;;39.70;32.70;;;;;;6013915;23;20395;-85
2022/08/25 09:12:06;;;;;;;4.30;3.90;;;37.80;34.60;;;;;;5894252;24;20414;-88
2022/08/25 09:16:53;;;;;;;3.60;3.30;;;38.50;34.50;;;;;;5828763;24;20419;-89
2022/08/25 09:19:11;;;;;;;3.47;3.27;;;38.70;33.90;;;;;;5860506;24;20401;-88
2022/08/25 09:22:52;;;;;;;;;;;;;;;;;;;;;
2022/08/25 09:26:15;;;;;;;4.97;4.10;;;37.50;35.50;;;;;;5917194;24;20472;-86
2022/08/25 09:29:48;;;;;;;3.73;3.40;;;37.70;35.20;;;;;;5846547;24;20463;-85
2022/08/25 09:33:13;;;;;;;6.13;3.40;;;37.70;35.20;;;;;;5993368;23;20419;-85
2022/08/25 09:36:21;;;;;;;;;;;;;;;;;;;;;
2022/08/25 09:39:31;;;;;;;4.03;3.43;;;38.70;34.20;;;;;;6101111;23;20424;-86
2022/08/25 09:47:06;;;;;;;3.50;3.30;;;38.10;34.30;;;;;;5979207;24;20427;-84
2022/08/25 09:50:13;;;;;;;3.80;3.50;;;38.10;34.20;;;;;;5918700;24;20449;-86
2022/08/25 09:53:17;;;;;;;3.30;3.00;;;36.60;35.90;;;;;;6052655;23;20483;-85
2022/08/25 09:58:44;;;;;;;3.23;3.03;;;37.90;34.60;;;;;;6106345;23;20430;-87
2022/08/25 10:01:52;;;;;;;4.57;3.80;;;38.40;34.00;;;;;;6105227;23;20460;-87
2022/08/25 10:08:30;;;;;;;3.20;3.00;;;38.50;33.10;;;;;;6130786;23;20447;-87
2022/08/25 10:15:55;;;;;;;4.70;4.30;;;37.80;33.80;;;;;;6027001;23;20461;-87
2022/08/25 10:19:41;;;;;;;5.07;4.47;;;38.60;33.00;;;;;;5986601;24;20825;-84
2022/08/25 10:22:53;;;;;;;3.80;3.47;;;38.00;33.50;;;;;;5907088;24;20448;-84
2022/08/25 10:26:02;;;;;;;3.17;2.97;;;38.10;33.30;;;;;;6007613;23;20410;-86
2022/08/25 10:29:25;;;;;;;3.50;2.70;;;38.10;33.30;;;;;;5920494;24;20433;-88
2022/08/25 10:32:23;;;;;;;3.03;2.83;;;38.20;33.00;;;;;;5877510;24;20446;-85
2022/08/25 10:46:55;;;;;;;4.20;3.70;;;38.40;32.90;;;;;;6115840;23;20409;-87
2022/08/25 10:50:26;;;;;;;3.57;3.20;;;38.50;32.90;;;;;;6000556;23;20470;-86
2022/08/25 10:57:25;;;;;;;3.00;2.80;;;37.70;32.70;;;;;;5990011;23;20440;-86
2022/08/25 11:04:50;;;;;;;4.33;3.90;;;38.70;31.60;;;;;;5837461;24;20612;-86
2022/08/25 11:16:44;;;;;;;3.10;2.90;;;38.40;32.10;;;;;;5929600;23;20411;-85
2022/08/25 11:20:08;;;;;;;3.90;3.50;;;37.60;31.90;;;;;;5883931;24;20486;-85
2022/08/25 11:23:50;;;;;;;2.93;2.73;;;37.70;32.20;;;;;;5934353;24;20414;-87
2022/08/25 11:27:07;;;;;;;3.77;3.47;;;38.30;31.10;;;;;;5959820;23;20421;-85
2022/08/25 11:30:48;;;;;;;3.10;2.80;;;38.10;31.30;;;;;;5936567;24;20456;-87
2022/08/25 11:33:38;;;;;;;4.13;3.00;;;38.00;31.40;;;;;;5952410;24;20408;-88
2022/08/25 11:39:06;;;;;;;4.03;3.10;;;38.20;31.60;;;;;;6130118;23;20473;-87
2022/08/25 11:42:18;;;;;;;3.73;3.43;;;38.50;30.80;;;;;;6075446;23;20423;-88
2022/08/25 11:45:27;;;;;;;3.40;3.20;;;37.70;31.70;;;;;;6131877;23;20669;-85
2022/08/25 11:48:35;;;;;;;5.60;2.90;;;38.30;30.50;;;;;;6099347;23;20440;-87
2022/08/25 11:52:07;;;;;;;6.20;3.70;;;38.00;31.00;;;;;;6076552;23;20400;-85
2022/08/25 11:55:11;;;;;;;6.20;3.30;;;38.00;31.30;;;;;;6064470;23;20429;-86
2022/08/25 12:01:45;;;;;;;3.27;3.07;;;37.70;31.10;;;;;;5981549;24;20411;-86
2022/08/25 12:04:46;;;;;;;3.30;3.00;;;37.90;31.30;;;;;;5965906;24;20497;-86
2022/08/25 12:11:10;;;;;;;3.40;3.20;;;38.60;30.50;;;;;;5937636;24;20408;-87
2022/08/25 12:14:52;;;;;;;3.50;3.30;;;38.40;30.50;;;;;;5969223;24;20440;-87
2022/08/25 12:18:27;;;;;;;;;;;;;;;;;;;;;
2022/08/25 12:21:30;;;;;;;4.93;3.47;;;38.00;30.50;;;;;;5912579;23;20486;-85
2022/08/25 12:24:43;;;;;;;4.30;3.40;;;37.30;31.10;;;;;;6023212;23;20419;-86
2022/08/25 12:27:38;;;;;;;5.00;3.67;;;36.80;32.00;;;;;;5991129;23;20470;-86
2022/08/25 12:31:04;;;;;;;3.47;3.17;;;37.00;32.00;;;;;;6011702;23;20450;-86
2022/08/25 12:34:38;;;;;;;3.73;3.43;;;38.20;30.40;;;;;;5932262;24;20483;-86
2022/08/25 12:41:43;;;;;;;3.83;3.30;;;38.30;29.90;;;;;;5994061;23;20686;-85
2022/08/25 12:44:47;;;;;;;3.10;2.90;;;37.90;30.10;;;;;;5993031;23;20434;-86
2022/08/25 12:47:26;;;;;;;3.00;2.80;;;38.20;29.70;;;;;;6106196;23;20456;-86
2022/08/25 12:50:58;;;;;;;3.40;3.20;;;37.60;30.10;;;;;;6101045;23;20455;-85
2022/08/25 12:54:15;;;;;;;3.40;3.20;;;38.10;30.00;;;;;;6125990;23;20429;-85
2022/08/25 12:57:24;;;;;;;3.80;3.50;;;38.50;29.40;;;;;;6012205;23;20438;-86
2022/08/25 13:00:35;;;;;;;3.23;3.00;;;37.70;30.30;;;;;;5998643;23;20625;-86
2022/08/25 13:03:58;;;;;;;2.73;2.53;;;37.30;30.00;;;;;;5987551;23;20419;-84
2022/08/25 13:07:02;;;;;;;3.30;3.10;;;37.70;28.90;;;;;;5958034;24;20704;-86
2022/08/25 13:10:19;;;;;;;4.53;2.90;;;37.70;28.90;;;;;;5953671;23;20459;-85
2022/08/25 13:13:49;;;;;;;3.37;3.07;;;37.50;29.30;;;;;;5995332;23;20918;-83
2022/08/25 13:16:47;;;;;;;3.23;2.90;;;37.30;29.70;;;;;;5957770;24;20476;-85
2022/08/25 13:19:45;;;;;;;3.47;3.27;;;37.50;29.70;;;;;;5925775;24;20403;-86
2022/08/25 13:26:47;;;;;;;5.03;3.40;;;37.50;29.80;;;;;;5888607;24;20521;-86
2022/08/25 13:29:58;;;;;;;4.07;3.77;;;37.10;30.00;;;;;;5894787;24;20480;-86
2022/08/25 13:32:37;;;;;;;5.43;3.43;;;37.40;29.40;;;;;;5963339;24;20476;-86
2022/08/25 13:43:40;;;;;;;3.20;2.90;;;37.30;29.10;;;;;;5967234;24;20421;-88
2022/08/25 13:46:58;;;;;;;2.70;2.50;;;37.60;29.00;;;;;;5915210;24;20446;-85
2022/08/25 13:49:47;;;;;;;3.20;3.00;;;37.50;29.10;;;;;;5964687;23;20503;-87
2022/08/25 13:53:04;;;;;;;3.13;2.93;;;37.60;29.20;;;;;;5998791;23;20404;-87
2022/08/25 13:59:44;;;;;;;3.77;2.63;;;37.00;29.30;;;;;;6020262;23;20370;-86
2022/08/25 14:02:57;;;;;;;2.90;2.70;;;37.10;29.00;;;;;;5993302;23;20415;-86
2022/08/25 14:06:09;;;;;;;2.90;2.70;;;36.90;29.70;;;;;;5991732;23;21134;-86
2022/08/25 14:13:40;;;;;;;3.70;3.07;;;36.60;30.20;;;;;;5997471;23;20394;-85
2022/08/25 14:16:45;;;;;;;2.90;2.70;;;36.20;30.00;;;;;;6014953;23;20481;-86
2022/08/25 14:26:18;;;;;;;2.90;2.70;;;36.20;29.80;;;;;;5930627;24;20528;-86
2022/08/25 14:32:52;;;;;;;3.00;2.80;;;36.20;30.00;;;;;;5931677;24;20405;-87
2022/08/25 14:35:46;;;;;;;2.70;2.50;;;36.40;29.60;;;;;;5931774;24;20482;-86
2022/08/25 14:39:14;;;;;;;3.27;2.90;;;36.70;29.60;;;;;;6034206;23;20490;-84
2022/08/25 14:41:57;;;;;;;3.13;2.93;;;36.60;29.80;;;;;;5992545;23;20405;-88
2022/08/25 14:44:34;;;;;;;3.67;3.37;;;36.40;30.20;;;;;;6026211;23;21146;-85
2022/08/25 14:47:07;;;;;;;3.43;2.73;;;36.20;30.70;;;;;;6010635;23;20452;-86
2022/08/25 14:49:46;;;;;;;2.90;2.53;;;36.00;30.00;;;;;;6021050;23;21225;-85
2022/08/25 14:52:30;;;;;;;2.83;2.63;;;35.90;30.00;;;;;;6065980;23;20433;-87
2022/08/25 14:55:15;;;;;;;2.50;2.40;;;36.00;29.50;;;;;;6048856;23;20484;-87
2022/08/25 14:58:02;;;;;;;2.90;2.70;;;35.90;29.50;;;;;;6067051;23;20425;-85
2022/08/25 15:00:43;;;;;;;2.87;2.47;;;35.60;29.60;;;;;;6070646;23;20423;-86
2022/08/25 15:03:41;;;;;;;3.13;2.83;;;35.50;29.90;;;;;;6070997;23;20435;-87
2022/08/25 15:06:17;;;;;;;3.23;3.00;;;35.50;29.60;;;;;;6047681;23;20430;-86
2022/08/25 15:09:09;;;;;;;3.20;2.90;;;35.50;29.50;;;;;;6071391;23;20431;-86
2022/08/25 15:12:09;;;;;;;3.53;2.70;;;35.50;29.70;;;;;;6074856;23;20413;-85
2022/08/25 15:21:11;;;;;;;3.00;2.80;;;35.90;29.60;;;;;;6130377;23;20522;-86
2022/08/25 15:24:18;;;;;;;2.77;2.57;;;35.60;30.10;;;;;;6135648;23;20407;-87
2022/08/25 15:31:51;;;;;;;3.77;3.40;;;35.40;30.10;;;;;;6094831;23;20452;-86
2022/08/25 15:34:48;;;;;;;2.60;2.50;;;35.20;30.50;;;;;;5990096;23;20395;-85
2022/08/25 15:38:05;;;;;;;2.93;2.73;;;35.20;29.90;;;;;;6013014;23;20411;-86
2022/08/25 15:41:36;;;;;;;3.10;2.77;;;35.00;30.00;;;;;;6015317;23;20434;-86
2022/08/25 15:44:40;;;;;;;2.70;2.50;;;35.10;30.00;;;;;;5879003;24;20478;-86
2022/08/25 15:48:11;;;;;;;2.90;2.70;;;35.30;30.10;;;;;;5877116;24;20442;-86
2022/08/25 15:51:50;;;;;;;;;;;;;;;;;;;;;
2022/08/25 15:59:39;;;;;;;2.70;2.47;;;35.10;29.60;;;;;;5894647;24;20489;-85
2022/08/25 16:03:03;;;;;;;3.47;3.27;;;35.20;29.70;;;;;;5893597;24;20436;-87
2022/08/25 16:05:47;;;;;;;3.03;2.73;;;34.90;29.90;;;;;;5971797;23;20411;-86
2022/08/25 16:08:41;;;;;;;;;;;;;;;;;;;;;
2022/08/25 16:26:14;;;;;;;2.93;2.73;;;34.80;30.00;;;;;;6084111;23;20687;-86
2022/08/25 16:29:48;;;;;;;2.63;2.43;;;34.80;29.70;;;;;;6065532;23;20369;-85
2022/08/25 16:34:04;;;;;;;2.67;2.47;;;34.50;30.00;;;;;;5957608;24;20417;-84
2022/08/25 16:37:46;;;;;;;2.93;2.63;;;34.60;29.90;;;;;;5946052;24;20425;-84
2022/08/25 16:41:35;;;;;;;2.70;2.50;;;34.40;29.70;;;;;;5929851;24;20472;-83
2022/08/25 16:48:56;;;;;;;3.70;3.10;;;34.60;29.90;;;;;;5970778;24;20403;-86
2022/08/25 16:58:43;;;;;;;;;;;;;;;;;;;;;
2022/08/25 17:02:05;;;;;;;3.37;2.67;;;34.40;30.90;;;;;;6068281;23;20389;-82
2022/08/25 17:09:11;;;;;;;3.13;2.83;;;34.40;30.20;;;;;;6019115;23;20438;-84
2022/08/25 17:12:16;;;;;;;3.17;2.87;;;34.40;30.80;;;;;;5978535;23;20812;-83
2022/08/25 17:21:53;;;;;;;2.60;2.40;;;34.20;30.60;;;;;;6128858;23;20400;-87
2022/08/25 17:25:01;;;;;;;2.60;2.30;;;34.20;30.80;;;;;;6033454;23;20422;-85
2022/08/25 17:36:48;;;;;;;4.93;3.20;;;33.90;31.10;;;;;;5886412;24;20482;-83
2022/08/25 17:40:21;;;;;;;2.50;2.30;;;33.80;30.90;;;;;;5987963;23;20406;-85
2022/08/25 17:44:07;;;;;;;2.67;2.50;;;33.80;30.90;;;;;;5901742;24;20410;-84
2022/08/25 17:51:19;;;;;;;3.30;2.50;;;33.80;31.20;;;;;;5939837;24;20456;-84
2022/08/25 17:58:03;;;;;;;4.30;2.60;;;33.60;30.50;;;;;;6121162;23;20470;-83
2022/08/25 18:13:06;;;;;;;;;;;;;;;;;;;;;